createdAt,value
2023-04-21T00:00:15.898Z,49.58
2023-04-21T00:02:42.601Z,49.39
2023-04-21T00:05:10.700Z,49.53
2023-04-21T00:07:38.408Z,49.69
2023-04-21T00:10:08.539Z,49.69
2023-04-21T00:12:35.336Z,49.12
2023-04-21T00:15:02.199Z,49.09
2023-04-21T00:17:31.369Z,48.76
2023-04-21T00:19:58.693Z,48.81
2023-04-21T00:22:25.280Z,49.05
2023-04-21T00:24:54.879Z,49.25
2023-04-21T00:27:21.520Z,48.98
2023-04-21T00:29:48.058Z,48.64
2023-04-21T00:32:19.608Z,49.14
2023-04-21T00:34:46.344Z,48.42
2023-04-21T00:37:15.648Z,48.28
2023-04-21T00:39:44.573Z,48.40
2023-04-21T00:42:15.442Z,48.38
2023-04-21T00:44:41.985Z,48.21
2023-04-21T00:47:11.759Z,48.30
2023-04-21T00:49:40.819Z,48.33
2023-04-21T00:52:07.408Z,48.56
2023-04-21T00:54:35.525Z,48.73
2023-04-21T00:57:03.755Z,48.78
2023-04-21T00:59:30.681Z,48.68
2023-04-21T01:01:59.824Z,48.55
2023-04-21T01:04:35.555Z,48.43
2023-04-21T01:07:04.424Z,48.66
2023-04-21T01:09:33.597Z,48.05
2023-04-21T01:12:03.588Z,48.52
2023-04-21T01:14:30.325Z,48.19
2023-04-21T01:16:58.444Z,47.89
2023-04-21T01:19:25.380Z,48.16
2023-04-21T01:21:54.192Z,47.76
2023-04-21T01:24:20.893Z,47.65
2023-04-21T01:26:54.713Z,47.21
2023-04-21T01:29:21.412Z,47.62
2023-04-21T01:31:50.360Z,47.41
2023-04-21T01:34:17.046Z,47.48
2023-04-21T01:36:44.680Z,47.35
2023-04-21T01:39:11.343Z,47.46
2023-04-21T01:41:40.753Z,47.26
2023-04-21T01:44:07.334Z,47.50
2023-04-21T01:46:36.847Z,47.67
2023-04-21T01:49:03.978Z,47.66
2023-04-21T01:51:33.248Z,47.50
2023-04-21T01:54:02.216Z,47.38
2023-04-21T01:56:31.433Z,47.19
2023-04-21T01:58:59.511Z,47.42
2023-04-21T02:01:26.491Z,47.29
2023-04-21T02:03:55.943Z,47.24
2023-04-21T02:06:25.632Z,47.18
2023-04-21T02:08:54.824Z,47.21
2023-04-21T02:11:21.515Z,47.29
2023-04-21T02:13:50.463Z,47.34
2023-04-21T02:16:20.705Z,47.55
2023-04-21T02:18:52.487Z,47.72
2023-04-21T02:21:19.481Z,47.24
2023-04-21T02:23:46.134Z,47.16
2023-04-21T02:26:12.768Z,47.52
2023-04-21T02:28:39.425Z,47.29
2023-04-21T02:31:12.065Z,47.21
2023-04-21T02:33:38.753Z,47.12
2023-04-21T02:36:05.737Z,47.14
2023-04-21T02:38:32.518Z,47.05
2023-04-21T02:40:59.090Z,47.02
2023-04-21T02:43:25.690Z,47.05
2023-04-21T02:45:52.396Z,47.77
2023-04-21T02:48:23.042Z,47.20
2023-04-21T02:50:53.122Z,47.38
2023-04-21T02:53:20.447Z,47.80
2023-04-21T02:55:47.116Z,47.64
2023-04-21T02:58:16.643Z,47.48
2023-04-21T03:00:43.237Z,48.05
2023-04-21T03:03:10.122Z,47.85
2023-04-21T03:05:38.910Z,47.73
2023-04-21T03:08:05.940Z,48.03
2023-04-21T03:10:36.662Z,47.92
2023-04-21T03:13:05.650Z,48.03
2023-04-21T03:15:34.618Z,48.24
2023-04-21T03:18:01.941Z,48.20
2023-04-21T03:20:28.803Z,47.41
2023-04-21T03:22:55.403Z,47.46
2023-04-21T03:25:22.568Z,47.28
2023-04-21T03:27:49.552Z,47.59
2023-04-21T03:30:16.284Z,47.41
2023-04-21T03:32:43.016Z,47.82
2023-04-21T03:35:14.620Z,48.58
2023-04-21T03:37:44.148Z,48.47
2023-04-21T03:40:10.911Z,48.85
2023-04-21T03:42:37.558Z,48.92
2023-04-21T03:45:08.001Z,48.77
2023-04-21T03:47:34.784Z,49.38
2023-04-21T03:50:03.127Z,49.74
2023-04-21T03:52:29.665Z,50.10
2023-04-21T03:54:56.437Z,50.84
2023-04-21T03:57:23.055Z,50.15
2023-04-21T03:59:50.030Z,50.12
2023-04-21T04:02:16.700Z,50.36
2023-04-21T04:04:43.721Z,50.08
2023-04-21T04:07:13.074Z,50.08
2023-04-21T04:09:42.317Z,50.27
2023-04-21T04:12:10.504Z,50.60
2023-04-21T04:14:38.213Z,50.49
2023-04-21T04:17:04.786Z,50.58
2023-04-21T04:19:34.363Z,50.83
2023-04-21T04:22:01.359Z,50.78
2023-04-21T04:24:28.126Z,51.74
2023-04-21T04:26:58.202Z,51.37
2023-04-21T04:29:24.884Z,51.27
2023-04-21T04:31:51.589Z,51.35
2023-04-21T04:34:18.651Z,51.32
2023-04-21T04:36:48.153Z,51.38
2023-04-21T04:39:16.474Z,51.08
2023-04-21T04:41:43.130Z,50.92
2023-04-21T04:44:11.189Z,50.63
2023-04-21T04:46:39.197Z,50.21
2023-04-21T04:49:08.372Z,50.28
2023-04-21T04:51:34.938Z,49.89
2023-04-21T04:54:02.139Z,49.73
2023-04-21T04:56:30.161Z,49.71
2023-04-21T04:58:56.989Z,49.98
2023-04-21T05:01:30.254Z,49.99
2023-04-21T05:03:59.414Z,49.80
2023-04-21T05:06:26.324Z,49.70
2023-04-21T05:08:56.138Z,49.32
2023-04-21T05:11:25.577Z,49.37
2023-04-21T05:13:52.266Z,49.11
2023-04-21T05:16:21.715Z,49.06
2023-04-21T05:18:53.234Z,48.91
2023-04-21T05:21:24.379Z,48.87
2023-04-21T05:23:53.375Z,49.10
2023-04-21T05:26:20.034Z,49.13
2023-04-21T05:28:46.645Z,49.23
2023-04-21T05:31:18.441Z,48.42
2023-04-21T05:33:45.089Z,48.57
2023-04-21T05:36:11.896Z,48.21
2023-04-21T05:38:43.112Z,48.03
2023-04-21T05:41:09.805Z,48.42
2023-04-21T05:43:36.498Z,48.10
2023-04-21T05:46:03.573Z,47.96
2023-04-21T05:48:33.224Z,47.89
2023-04-21T05:51:09.532Z,47.19
2023-04-21T05:53:36.260Z,47.02
2023-04-21T05:56:02.887Z,46.51
2023-04-21T05:58:29.549Z,45.68
2023-04-21T06:00:56.111Z,46.04
2023-04-21T06:03:23.310Z,45.93
2023-04-21T06:05:54.402Z,46.17
2023-04-21T06:08:21.269Z,45.97
2023-04-21T06:10:47.932Z,44.82
2023-04-21T06:13:16.925Z,44.39
2023-04-21T06:15:43.532Z,44.97
2023-04-21T06:18:10.534Z,44.58
2023-04-21T06:20:41.109Z,44.40
2023-04-21T06:23:13.611Z,44.18
2023-04-21T06:25:40.178Z,43.89
2023-04-21T06:28:07.183Z,43.68
2023-04-21T06:30:33.767Z,43.10
2023-04-21T06:33:00.841Z,43.27
2023-04-21T06:35:30.741Z,42.11
2023-04-21T06:37:57.354Z,43.01
2023-04-21T06:40:24.002Z,43.04
2023-04-21T06:42:50.642Z,41.73
2023-04-21T06:45:21.519Z,41.05
2023-04-21T06:47:48.439Z,41.68
2023-04-21T06:50:15.166Z,42.12
2023-04-21T06:52:44.086Z,40.84
2023-04-21T06:55:10.917Z,41.41
2023-04-21T06:57:45.261Z,41.29
2023-04-21T07:00:15.170Z,41.24
2023-04-21T07:02:45.080Z,41.97
2023-04-21T07:05:14.084Z,41.29
2023-04-21T07:07:40.614Z,41.11
2023-04-21T07:10:07.534Z,41.56
2023-04-21T07:12:34.270Z,40.58
2023-04-21T07:15:00.965Z,40.90
2023-04-21T07:17:30.240Z,41.04
2023-04-21T07:19:59.077Z,40.76
2023-04-21T07:22:25.677Z,40.69
2023-04-21T07:24:52.783Z,39.81
2023-04-21T07:27:21.829Z,39.99
2023-04-21T07:29:48.543Z,40.33
2023-04-21T07:32:17.490Z,40.60
2023-04-21T07:34:47.028Z,40.73
2023-04-21T07:37:13.657Z,39.25
2023-04-21T07:39:40.227Z,39.71
2023-04-21T07:42:09.767Z,39.38
2023-04-21T07:44:36.577Z,37.78
2023-04-21T07:47:03.218Z,38.79
2023-04-21T07:49:32.602Z,39.12
2023-04-21T07:51:59.342Z,39.29
2023-04-21T07:54:26.301Z,39.21
2023-04-21T07:56:55.341Z,39.30
2023-04-21T07:59:24.009Z,38.54
2023-04-21T08:01:52.327Z,39.35
2023-04-21T08:04:19.454Z,39.38
2023-04-21T08:06:47.060Z,38.78
2023-04-21T08:09:15.935Z,38.99
2023-04-21T08:11:42.692Z,38.74
2023-04-21T08:14:12.154Z,37.16
2023-04-21T08:16:40.357Z,37.40
2023-04-21T08:19:09.824Z,37.14
2023-04-21T08:21:36.844Z,37.67
2023-04-21T08:24:03.790Z,37.26
2023-04-21T08:26:30.407Z,37.05
2023-04-21T08:28:57.443Z,35.47
2023-04-21T08:31:26.744Z,37.08
2023-04-21T08:34:01.363Z,36.42
2023-04-21T08:36:34.207Z,36.46
2023-04-21T08:39:01.632Z,36.21
2023-04-21T08:41:28.307Z,36.31
2023-04-21T08:43:55.318Z,36.70
2023-04-21T08:46:22.030Z,36.31
2023-04-21T08:48:48.988Z,36.46
2023-04-21T08:51:21.003Z,35.76
2023-04-21T08:53:48.041Z,35.51
2023-04-21T08:56:14.983Z,33.94
2023-04-21T08:58:42.141Z,34.70
2023-04-21T09:01:08.965Z,35.22
2023-04-21T09:03:35.835Z,34.84
2023-04-21T09:06:05.508Z,34.48
2023-04-21T09:08:32.985Z,34.02
2023-04-21T09:11:06.228Z,33.66
2023-04-21T09:13:36.524Z,34.08
2023-04-21T09:16:05.681Z,33.81
2023-04-21T09:18:37.289Z,33.15
2023-04-21T09:21:07.030Z,33.14
2023-04-21T09:23:50.441Z,32.99
2023-04-21T09:26:18.222Z,33.23
2023-04-21T09:28:48.044Z,33.05
2023-04-21T09:31:16.131Z,33.08
2023-04-21T09:36:26.251Z,32.43
2023-04-21T09:39:15.374Z,31.96
2023-04-21T09:41:45.029Z,32.26
2023-04-21T09:44:12.126Z,32.45
2023-04-21T09:46:39.402Z,31.92
2023-04-21T09:49:08.704Z,32.27
2023-04-21T09:52:09.706Z,32.24
2023-04-21T09:54:30.116Z,31.96
2023-04-21T09:57:02.271Z,31.88
2023-04-21T09:59:37.837Z,31.40
2023-04-21T10:02:09.555Z,31.64
2023-04-21T10:04:36.749Z,31.55
2023-04-21T10:07:03.844Z,31.39
2023-04-21T10:09:44.310Z,32.20
2023-04-21T10:12:13.459Z,31.97
2023-04-21T10:14:42.918Z,30.86
2023-04-21T10:17:12.111Z,30.50
2023-04-21T10:19:49.443Z,30.39
2023-04-21T10:22:16.124Z,29.66
2023-04-21T10:24:43.013Z,30.28
2023-04-21T10:27:10.159Z,30.42
2023-04-21T10:29:52.540Z,30.29
2023-04-21T10:32:43.726Z,30.34
2023-04-21T10:35:11.098Z,30.83
2023-04-21T10:37:37.912Z,31.08
2023-04-21T10:40:09.783Z,30.25
2023-04-21T10:42:38.570Z,30.42
2023-04-21T10:45:08.883Z,30.19
2023-04-21T10:47:44.494Z,29.52
2023-04-21T10:50:12.094Z,29.10
2023-04-21T10:52:39.609Z,29.29
2023-04-21T10:55:07.317Z,29.74
2023-04-21T10:57:35.220Z,28.88
2023-04-21T11:00:02.024Z,29.55
2023-04-21T11:02:31.414Z,27.87
2023-04-21T11:05:01.319Z,28.04
2023-04-21T11:07:28.736Z,27.24
2023-04-21T11:09:58.750Z,27.00
2023-04-21T11:12:30.193Z,27.37
2023-04-21T11:14:59.469Z,27.00
2023-04-21T11:17:28.445Z,26.88
2023-04-21T11:19:59.423Z,27.17
2023-04-21T11:22:28.890Z,27.51
2023-04-21T11:24:58.662Z,27.63
2023-04-21T11:27:29.961Z,27.34
2023-04-21T11:29:58.968Z,27.67
2023-04-21T11:32:25.737Z,27.73
2023-04-21T11:34:52.351Z,27.66
2023-04-21T11:37:23.815Z,27.87
2023-04-21T11:39:53.595Z,27.43
2023-04-21T11:42:23.439Z,28.01
2023-04-21T11:44:50.163Z,28.41
2023-04-21T11:47:28.309Z,29.11
2023-04-21T11:49:58.286Z,29.87
2023-04-21T11:52:25.328Z,29.11
2023-04-21T11:55:01.524Z,28.66
2023-04-21T11:57:28.718Z,27.77
2023-04-21T11:59:58.597Z,27.48
2023-04-21T12:02:26.401Z,25.83
2023-04-21T12:05:07.043Z,25.70
2023-04-21T12:07:34.520Z,25.13
2023-04-21T12:10:05.667Z,25.26
2023-04-21T12:12:34.009Z,25.37
2023-04-21T12:15:04.598Z,24.75
2023-04-21T12:18:00.606Z,25.57
2023-04-21T12:20:28.932Z,24.96
2023-04-21T12:22:56.547Z,25.13
2023-04-21T12:25:23.307Z,25.74
2023-04-21T12:27:54.304Z,25.29
2023-04-21T12:30:23.827Z,25.98
2023-04-21T12:32:54.385Z,26.88
2023-04-21T12:35:21.816Z,27.23
2023-04-21T12:37:48.481Z,27.58
2023-04-21T12:40:15.048Z,26.00
2023-04-21T12:42:41.632Z,27.18
2023-04-21T12:45:10.811Z,29.67
2023-04-21T12:47:37.689Z,28.94
2023-04-21T12:50:04.805Z,28.80
2023-04-21T12:52:31.412Z,28.69
2023-04-21T12:55:00.394Z,29.00
2023-04-21T12:57:27.019Z,28.89
2023-04-21T12:59:56.024Z,28.72
2023-04-21T13:02:22.882Z,28.22
2023-04-21T13:04:54.159Z,27.81
2023-04-21T13:07:26.804Z,28.28
2023-04-21T13:09:53.533Z,27.82
2023-04-21T13:12:20.636Z,27.28
2023-04-21T13:14:49.656Z,27.94
2023-04-21T13:17:16.488Z,27.37
2023-04-21T13:19:43.383Z,27.88
2023-04-21T13:22:12.261Z,28.37
2023-04-21T13:24:38.916Z,28.83
2023-04-21T13:27:10.265Z,28.96
2023-04-21T13:29:39.221Z,29.01
2023-04-21T13:32:06.896Z,29.41
2023-04-21T13:34:34.373Z,29.19
2023-04-21T13:37:01.627Z,29.87
2023-04-21T13:39:28.281Z,29.09
2023-04-21T13:41:54.942Z,28.85
2023-04-21T13:46:52.966Z,28.97
2023-04-21T13:49:19.850Z,28.24
2023-04-21T13:51:48.969Z,28.40
2023-04-21T13:54:20.258Z,28.42
2023-04-21T13:56:46.977Z,28.10
2023-04-21T13:59:14.929Z,27.96
2023-04-21T14:01:41.824Z,27.74
2023-04-21T14:04:11.183Z,28.17
2023-04-21T14:06:37.900Z,26.85
2023-04-21T14:09:05.032Z,27.61
2023-04-21T14:11:31.813Z,27.77
2023-04-21T14:14:08.909Z,27.02
2023-04-21T14:16:39.112Z,26.73
2023-04-21T14:19:06.902Z,26.32
2023-04-21T14:21:33.779Z,26.04
2023-04-21T14:24:00.438Z,26.27
2023-04-21T14:26:27.107Z,25.91
2023-04-21T14:28:59.658Z,25.95
2023-04-21T14:31:28.870Z,25.85
2023-04-21T14:33:58.000Z,26.23
2023-04-21T14:36:24.631Z,25.26
2023-04-21T14:38:51.293Z,26.59
2023-04-21T14:41:28.289Z,26.29
2023-04-21T14:43:59.208Z,26.64
2023-04-21T14:46:26.608Z,26.81
2023-04-21T14:48:58.295Z,26.49
2023-04-21T14:51:25.545Z,26.95
2023-04-21T14:53:52.484Z,26.69
2023-04-21T14:56:22.547Z,26.03
2023-04-21T14:58:53.780Z,26.26
2023-04-21T15:01:25.988Z,26.09
2023-04-21T15:03:53.246Z,26.12
2023-04-21T15:06:23.775Z,25.86
2023-04-21T15:08:55.673Z,25.68
2023-04-21T15:11:25.006Z,25.40
2023-04-21T15:13:54.101Z,23.60
2023-04-21T15:16:20.805Z,22.89
2023-04-21T15:18:47.384Z,21.41
2023-04-21T15:21:13.997Z,19.68
2023-04-21T15:23:43.921Z,17.52
2023-04-21T15:26:10.568Z,19.43
2023-04-21T15:28:39.510Z,18.51
2023-04-21T15:31:12.231Z,19.81
2023-04-21T15:33:41.577Z,20.84
2023-04-21T15:36:12.301Z,19.20
2023-04-21T15:38:38.903Z,19.78
2023-04-21T15:41:05.754Z,20.71
2023-04-21T15:43:33.192Z,22.51
2023-04-21T15:46:01.890Z,22.09
2023-04-21T15:48:31.220Z,22.33
2023-04-21T15:51:03.571Z,22.48
2023-04-21T15:53:30.737Z,22.12
2023-04-21T15:56:05.217Z,22.27
2023-04-21T15:58:39.812Z,21.91
2023-04-21T16:01:09.440Z,22.88
2023-04-21T16:03:47.026Z,22.55
2023-04-21T16:06:13.914Z,22.67
2023-04-21T16:08:43.518Z,22.44
2023-04-21T16:11:12.863Z,21.32
2023-04-21T16:13:39.500Z,22.16
2023-04-21T16:16:06.470Z,22.43
2023-04-21T16:18:35.708Z,22.03
2023-04-21T16:21:04.879Z,22.28
2023-04-21T16:23:33.921Z,22.09
2023-04-21T16:26:06.433Z,23.04
2023-04-21T16:28:35.554Z,23.08
2023-04-21T16:31:05.303Z,23.74
2023-04-21T16:33:34.262Z,23.93
2023-04-21T16:36:03.696Z,24.38
2023-04-21T16:38:32.635Z,24.37
2023-04-21T16:40:59.332Z,25.19
2023-04-21T16:43:26.472Z,24.89
2023-04-21T16:45:56.180Z,24.80
2023-04-21T16:48:22.980Z,24.77
2023-04-21T16:50:53.909Z,25.20
2023-04-21T16:53:20.959Z,25.64
2023-04-21T16:55:52.882Z,25.50
2023-04-21T16:58:20.395Z,25.62
2023-04-21T17:00:49.340Z,26.06
2023-04-21T17:03:23.591Z,25.60
2023-04-21T17:05:52.669Z,25.90
2023-04-21T17:08:19.291Z,26.24
2023-04-21T17:10:45.976Z,25.84
2023-04-21T17:13:12.740Z,26.12
2023-04-21T17:15:39.309Z,26.48
2023-04-21T17:18:08.385Z,26.36
2023-04-21T17:20:35.220Z,26.46
2023-04-21T17:23:04.652Z,27.10
2023-04-21T17:25:31.340Z,26.94
2023-04-21T17:27:57.955Z,27.26
2023-04-21T17:30:24.586Z,27.93
2023-04-21T17:33:00.523Z,27.91
2023-04-21T17:35:46.079Z,28.39
2023-04-21T17:38:21.361Z,28.61
2023-04-21T17:40:47.928Z,29.04
2023-04-21T17:43:14.492Z,29.45
2023-04-21T17:45:43.357Z,29.25
2023-04-21T17:48:10.009Z,30.08
2023-04-21T17:50:39.089Z,30.53
2023-04-21T17:53:05.768Z,30.90
2023-04-21T17:55:32.460Z,31.18
2023-04-21T17:58:01.440Z,30.89
2023-04-21T18:00:34.508Z,30.89
2023-04-21T18:03:02.154Z,31.37
2023-04-21T18:05:29.568Z,31.59
2023-04-21T18:07:58.644Z,31.71
2023-04-21T18:10:28.264Z,31.71
2023-04-21T18:12:56.130Z,32.04
2023-04-21T18:15:25.768Z,32.24
2023-04-21T18:17:53.369Z,32.72
2023-04-21T18:20:23.480Z,32.47
2023-04-21T18:22:54.190Z,32.20
2023-04-21T18:25:40.614Z,32.33
2023-04-21T18:28:11.091Z,32.83
2023-04-21T18:30:37.805Z,33.07
2023-04-21T18:33:04.949Z,33.82
2023-04-21T18:35:34.360Z,33.89
2023-04-21T18:38:03.898Z,34.26
2023-04-21T18:40:37.084Z,34.20
2023-04-21T18:43:06.425Z,34.23
2023-04-21T18:45:33.669Z,35.01
2023-04-21T18:48:00.358Z,34.45
2023-04-21T18:50:29.587Z,35.02
2023-04-21T18:52:58.790Z,35.22
2023-04-21T18:55:25.467Z,35.04
2023-04-21T18:57:52.081Z,35.45
2023-04-21T19:00:19.531Z,35.44
2023-04-21T19:02:48.844Z,34.90
2023-04-21T19:05:16.417Z,35.16
2023-04-21T19:07:44.189Z,35.70
2023-04-21T19:10:11.101Z,34.96
2023-04-21T19:12:37.763Z,35.14
2023-04-21T19:15:04.689Z,35.33
2023-04-21T19:17:31.607Z,35.11
2023-04-21T19:20:00.916Z,35.07
2023-04-21T19:22:32.834Z,35.17
2023-04-21T19:25:00.974Z,35.45
2023-04-21T19:27:34.186Z,35.63
2023-04-21T19:30:01.677Z,35.73
2023-04-21T19:32:28.878Z,36.12
2023-04-21T19:34:56.982Z,36.13
2023-04-21T19:37:24.383Z,36.03
2023-04-21T19:39:51.066Z,36.19
2023-04-21T19:42:17.711Z,36.33
2023-04-21T19:44:48.750Z,35.96
2023-04-21T19:47:21.819Z,36.92
2023-04-21T19:49:48.817Z,36.77
2023-04-21T19:52:19.097Z,36.75
2023-04-21T19:54:48.507Z,36.95
2023-04-21T19:57:15.196Z,36.85
2023-04-21T19:59:49.222Z,37.61
2023-04-21T20:02:16.720Z,37.77
2023-04-21T20:04:43.716Z,38.12
2023-04-21T20:07:13.772Z,38.46
2023-04-21T20:09:42.911Z,38.80
2023-04-21T20:12:12.120Z,39.15
2023-04-21T20:14:39.006Z,38.76
2023-04-21T20:17:08.194Z,38.97
2023-04-21T20:19:40.653Z,38.89
2023-04-21T20:22:08.237Z,38.79
2023-04-21T20:24:39.756Z,38.97
2023-04-21T20:27:08.801Z,39.75
2023-04-21T20:29:36.555Z,39.51
2023-04-21T20:32:03.712Z,39.87
2023-04-21T20:34:30.714Z,40.02
2023-04-21T20:36:59.772Z,39.99
2023-04-21T20:39:26.832Z,40.43
2023-04-21T20:42:11.898Z,40.16
2023-04-21T20:44:41.268Z,40.66
2023-04-21T20:47:11.145Z,40.90
2023-04-21T20:49:42.750Z,40.80
2023-04-21T20:52:09.646Z,41.00
2023-04-21T20:54:36.501Z,40.99
2023-04-21T20:57:03.103Z,41.75
2023-04-21T20:59:32.138Z,40.99
2023-04-21T21:02:10.999Z,41.44
2023-04-21T21:04:42.482Z,41.06
2023-04-21T21:07:09.062Z,41.24
2023-04-21T21:09:35.922Z,41.98
2023-04-21T21:12:02.716Z,42.59
2023-04-21T21:14:32.128Z,42.13
2023-04-21T21:17:01.572Z,42.05
2023-04-21T21:19:30.621Z,42.69
2023-04-21T21:21:57.569Z,42.23
2023-04-21T21:24:26.331Z,42.33
2023-04-21T21:26:53.068Z,42.39
2023-04-21T21:29:19.696Z,42.68
2023-04-21T21:31:49.974Z,42.57
2023-04-21T21:34:19.643Z,42.48
2023-04-21T21:36:46.288Z,42.99
2023-04-21T21:39:13.915Z,42.71
2023-04-21T21:41:43.478Z,42.58
2023-04-21T21:44:12.568Z,42.77
2023-04-21T21:46:41.594Z,43.04
2023-04-21T21:49:10.940Z,43.45
2023-04-21T21:51:45.699Z,42.99
2023-04-21T21:54:21.127Z,43.24
2023-04-21T22:00:51.950Z,42.94
2023-04-21T22:03:25.340Z,43.07
2023-04-21T22:05:52.338Z,43.39
2023-04-21T22:08:21.808Z,43.11
2023-04-21T22:10:49.467Z,43.29
2023-04-21T22:13:18.502Z,43.62
2023-04-21T22:15:47.985Z,43.59
2023-04-21T22:18:18.710Z,43.68
2023-04-21T22:20:47.651Z,43.84
2023-04-21T22:23:19.734Z,43.81
2023-04-21T22:25:58.297Z,44.16
2023-04-21T22:28:29.893Z,44.38
2023-04-21T22:30:59.136Z,44.93
2023-04-21T22:33:26.082Z,44.27
2023-04-21T22:35:52.672Z,44.53
2023-04-21T22:38:19.864Z,44.69
2023-04-21T22:40:46.722Z,44.46
2023-04-21T22:43:14.820Z,44.44
2023-04-21T22:45:42.968Z,44.36
2023-04-21T22:48:09.652Z,44.75
2023-04-21T22:50:36.323Z,46.06
2023-04-21T22:53:02.947Z,46.41
2023-04-21T22:55:32.139Z,45.73
2023-04-21T22:57:58.891Z,45.88
2023-04-21T23:00:30.343Z,47.52
2023-04-21T23:02:57.155Z,47.82
2023-04-21T23:05:24.007Z,48.02
2023-04-21T23:07:53.121Z,46.73
2023-04-21T23:10:22.388Z,46.81
2023-04-21T23:12:49.160Z,46.58
2023-04-21T23:15:15.891Z,46.43
2023-04-21T23:17:43.416Z,46.29
2023-04-21T23:20:10.390Z,46.40
2023-04-21T23:22:37.127Z,46.05
2023-04-21T23:25:04.156Z,45.92
2023-04-21T23:27:33.336Z,46.69
2023-04-21T23:30:00.414Z,47.28
2023-04-21T23:32:31.534Z,47.48
2023-04-21T23:34:58.206Z,47.67
2023-04-21T23:37:24.829Z,47.79
2023-04-21T23:39:53.854Z,48.21
2023-04-21T23:42:20.580Z,47.93
2023-04-21T23:44:47.491Z,46.95
2023-04-21T23:47:14.560Z,47.37
2023-04-21T23:49:44.064Z,47.35
2023-04-21T23:52:10.812Z,46.95
2023-04-21T23:54:37.384Z,47.06
2023-04-21T23:57:06.541Z,46.92
2023-04-21T23:59:35.849Z,46.97
